createdAt,value
2023-02-28T00:00:00.765Z,5.87
2023-02-28T00:03:43.760Z,8.70
2023-02-28T00:07:26.464Z,6.67
2023-02-28T00:11:12.355Z,7.53
2023-02-28T00:14:55.187Z,9.63
2023-02-28T00:18:38.044Z,8.70
2023-02-28T00:22:23.663Z,7.17
2023-02-28T00:26:06.699Z,7.67
2023-02-28T00:29:50.719Z,6.67
2023-02-28T00:33:33.432Z,8.53
2023-02-28T00:37:16.279Z,7.53
2023-02-28T00:40:59.561Z,6.63
2023-02-28T00:44:42.249Z,8.00
2023-02-28T00:48:26.274Z,8.90
2023-02-28T00:52:08.974Z,10.97
2023-02-28T00:55:51.873Z,8.63
2023-02-28T00:59:34.506Z,8.77
2023-02-28T01:03:18.508Z,7.47
2023-02-28T01:07:02.561Z,6.73
2023-02-28T01:10:45.184Z,6.47
2023-02-28T01:14:27.839Z,6.37
2023-02-28T01:18:10.551Z,8.23
2023-02-28T01:21:53.242Z,7.73
2023-02-28T01:25:38.161Z,10.90
2023-02-28T01:29:20.827Z,7.83
2023-02-28T01:33:03.574Z,8.33
2023-02-28T01:36:46.689Z,7.80
2023-02-28T01:40:29.375Z,8.90
2023-02-28T01:44:45.353Z,8.53
2023-02-28T01:48:36.757Z,9.00
2023-02-28T01:52:19.803Z,7.83
2023-02-28T01:56:02.678Z,7.17
2023-02-28T01:59:49.738Z,6.87
2023-02-28T02:03:34.451Z,7.97
2023-02-28T02:07:17.222Z,7.70
2023-02-28T02:11:01.728Z,8.60
2023-02-28T02:14:53.699Z,6.83
2023-02-28T02:18:43.273Z,7.90
2023-02-28T02:23:04.925Z,11.77
2023-02-28T02:27:00.046Z,7.27
2023-02-28T02:31:01.090Z,6.20
2023-02-28T02:34:52.744Z,7.80
2023-02-28T02:38:38.915Z,8.20
2023-02-28T02:42:25.792Z,6.87
2023-02-28T02:46:11.526Z,8.40
2023-02-28T02:49:57.709Z,6.80
2023-02-28T02:53:44.516Z,6.87
2023-02-28T02:57:32.277Z,6.90
2023-02-28T03:01:28.550Z,8.03
2023-02-28T03:05:17.370Z,8.17
2023-02-28T03:09:00.023Z,8.07
2023-02-28T03:12:50.185Z,6.70
2023-02-28T03:16:38.679Z,8.70
2023-02-28T03:20:30.157Z,8.33
2023-02-28T03:24:16.663Z,8.87
2023-02-28T03:28:12.743Z,9.33
2023-02-28T03:31:59.464Z,8.33
2023-02-28T03:35:45.899Z,9.47
2023-02-28T03:39:33.337Z,8.27
2023-02-28T03:43:21.645Z,12.27
2023-02-28T03:47:06.872Z,10.00
2023-02-28T03:50:54.416Z,11.23
2023-02-28T03:54:42.151Z,10.30
2023-02-28T03:58:32.390Z,8.50
2023-02-28T04:02:15.043Z,10.63
2023-02-28T04:05:59.792Z,9.97
2023-02-28T04:09:42.909Z,9.20
2023-02-28T04:13:25.609Z,10.00
2023-02-28T04:17:08.241Z,11.23
2023-02-28T04:20:50.887Z,11.83
2023-02-28T04:24:35.240Z,12.00
2023-02-28T04:28:17.845Z,11.67
2023-02-28T04:32:01.946Z,11.23
2023-02-28T04:35:44.725Z,13.97
2023-02-28T04:39:28.594Z,12.63
2023-02-28T04:43:12.590Z,13.80
2023-02-28T04:46:55.191Z,15.23
2023-02-28T04:50:37.811Z,14.37
2023-02-28T04:54:20.607Z,12.97
2023-02-28T04:58:03.481Z,16.73
2023-02-28T05:01:50.031Z,14.80
2023-02-28T05:05:32.724Z,14.83
2023-02-28T05:09:15.399Z,14.90
2023-02-28T05:12:58.042Z,17.93
2023-02-28T05:16:40.880Z,16.03
2023-02-28T05:20:25.057Z,15.40
2023-02-28T05:24:09.446Z,18.17
2023-02-28T05:27:52.155Z,16.70
2023-02-28T05:31:35.573Z,18.37
2023-02-28T05:35:18.324Z,17.83
2023-02-28T05:39:02.352Z,17.87
2023-02-28T05:42:45.029Z,15.47
2023-02-28T05:46:30.378Z,17.90
2023-02-28T05:50:13.532Z,18.53
2023-02-28T05:53:56.136Z,20.07
2023-02-28T05:57:40.189Z,19.77
2023-02-28T06:01:26.090Z,18.87
2023-02-28T06:05:14.147Z,21.80
2023-02-28T06:08:56.788Z,24.60
2023-02-28T06:12:42.488Z,24.70
2023-02-28T06:16:25.561Z,20.40
2023-02-28T06:20:09.836Z,21.77
2023-02-28T06:23:52.729Z,23.43
2023-02-28T06:27:36.217Z,23.23
2023-02-28T06:31:21.080Z,21.83
2023-02-28T06:35:04.235Z,23.37
2023-02-28T06:38:52.268Z,21.97
2023-02-28T06:42:34.937Z,23.63
2023-02-28T06:46:17.737Z,22.63
2023-02-28T06:50:02.476Z,20.80
2023-02-28T06:53:45.147Z,24.43
2023-02-28T06:57:31.742Z,23.73
2023-02-28T07:01:15.567Z,22.93
2023-02-28T07:04:58.309Z,24.07
2023-02-28T07:08:42.516Z,22.83
2023-02-28T07:12:25.283Z,22.73
2023-02-28T07:16:10.973Z,23.03
2023-02-28T07:19:53.620Z,22.97
2023-02-28T07:23:38.615Z,25.17
2023-02-28T07:27:26.572Z,25.03
2023-02-28T07:31:12.826Z,29.40
2023-02-28T07:34:56.022Z,23.80
2023-02-28T07:38:39.505Z,25.47
2023-02-28T07:42:23.588Z,24.90
2023-02-28T07:46:07.715Z,31.30
2023-02-28T07:49:50.389Z,23.97
2023-02-28T07:53:33.048Z,27.07
2023-02-28T07:57:15.992Z,25.67
2023-02-28T08:01:07.418Z,26.73
2023-02-28T08:04:51.457Z,23.90
2023-02-28T08:08:34.476Z,25.80
2023-02-28T08:12:17.256Z,22.23
2023-02-28T08:16:03.912Z,29.13
2023-02-28T08:19:47.382Z,26.87
2023-02-28T08:23:30.020Z,25.13
2023-02-28T08:27:12.674Z,24.00
2023-02-28T08:30:55.701Z,27.90
2023-02-28T08:34:41.205Z,22.43
2023-02-28T08:38:24.039Z,23.90
2023-02-28T08:42:08.012Z,22.07
2023-02-28T08:45:53.783Z,22.50
2023-02-28T08:49:36.569Z,24.70
2023-02-28T08:53:20.564Z,24.40
2023-02-28T08:57:03.231Z,22.73
2023-02-28T09:00:45.862Z,27.40
2023-02-28T09:04:31.609Z,25.47
2023-02-28T09:08:14.242Z,23.30
2023-02-28T09:11:59.067Z,24.80
2023-02-28T09:15:42.851Z,24.37
2023-02-28T09:19:25.515Z,23.70
2023-02-28T09:23:08.367Z,23.00
2023-02-28T09:27:03.498Z,23.50
2023-02-28T09:30:49.740Z,21.73
2023-02-28T09:34:32.787Z,22.97
2023-02-28T09:38:15.549Z,26.53
2023-02-28T09:41:58.732Z,22.07
2023-02-28T09:45:43.177Z,25.83
2023-02-28T09:49:31.153Z,23.20
2023-02-28T09:53:18.961Z,29.17
2023-02-28T09:57:04.121Z,27.97
2023-02-28T10:00:52.528Z,25.80
2023-02-28T10:04:44.840Z,26.80
2023-02-28T10:08:29.684Z,26.23
2023-02-28T10:12:13.758Z,25.47
2023-02-28T10:16:00.334Z,27.03
2023-02-28T10:19:48.239Z,26.90
2023-02-28T10:23:34.318Z,25.93
2023-02-28T10:27:19.637Z,24.90
2023-02-28T10:31:02.569Z,24.00
2023-02-28T10:34:46.885Z,24.60
2023-02-28T10:38:33.883Z,24.00
2023-02-28T10:42:26.769Z,23.73
2023-02-28T10:46:16.454Z,27.37
2023-02-28T10:50:00.531Z,26.13
2023-02-28T10:54:01.639Z,21.10
2023-02-28T10:57:44.839Z,29.83
2023-02-28T11:01:37.926Z,45.57
2023-02-28T11:05:33.601Z,32.77
2023-02-28T11:09:25.292Z,24.37
2023-02-28T11:13:19.097Z,25.67
2023-02-28T11:17:13.384Z,28.07
2023-02-28T11:21:01.193Z,25.33
2023-02-28T11:24:45.742Z,23.40
2023-02-28T11:28:32.169Z,23.03
2023-02-28T11:32:18.779Z,22.93
2023-02-28T11:36:06.315Z,28.37
2023-02-28T11:39:49.166Z,21.70
2023-02-28T11:43:39.539Z,26.43
2023-02-28T11:47:29.816Z,24.77
2023-02-28T11:51:17.993Z,24.20
2023-02-28T11:55:11.513Z,21.23
2023-02-28T11:59:00.428Z,24.30
2023-02-28T12:02:57.357Z,22.53
2023-02-28T12:06:47.186Z,25.57
2023-02-28T12:10:31.687Z,24.37
2023-02-28T12:14:49.093Z,22.57
2023-02-28T12:18:49.333Z,24.83
2023-02-28T12:22:37.947Z,20.43
2023-02-28T12:26:25.275Z,20.33
2023-02-28T12:30:16.491Z,21.97
2023-02-28T12:34:05.441Z,21.90
2023-02-28T12:37:53.749Z,22.50
2023-02-28T12:41:41.439Z,20.10
2023-02-28T12:45:26.162Z,26.73
2023-02-28T12:49:12.764Z,21.57
2023-02-28T12:53:01.877Z,19.67
2023-02-28T12:56:49.428Z,19.20
2023-02-28T13:00:36.372Z,21.53
2023-02-28T13:04:44.129Z,18.73
2023-02-28T13:08:43.677Z,20.90
2023-02-28T13:12:27.792Z,20.90
2023-02-28T13:16:11.705Z,20.20
2023-02-28T13:20:00.024Z,30.20
2023-02-28T13:24:01.508Z,20.43
2023-02-28T13:27:44.733Z,21.97
2023-02-28T13:31:28.171Z,19.77
2023-02-28T13:35:47.351Z,20.57
2023-02-28T13:39:51.213Z,21.77
2023-02-28T13:44:02.047Z,24.47
2023-02-28T13:47:46.062Z,19.80
2023-02-28T13:51:42.855Z,21.10
2023-02-28T13:55:29.627Z,18.70
2023-02-28T13:59:22.664Z,19.97
2023-02-28T14:03:20.956Z,19.67
2023-02-28T14:07:03.921Z,23.10
2023-02-28T14:10:50.315Z,19.60
2023-02-28T14:14:57.356Z,20.00
2023-02-28T14:18:43.182Z,18.50
2023-02-28T14:22:48.359Z,15.83
2023-02-28T14:26:44.967Z,18.37
2023-02-28T14:30:51.223Z,18.37
2023-02-28T14:34:47.276Z,20.83
2023-02-28T14:38:32.204Z,17.37
2023-02-28T14:42:34.005Z,18.77
2023-02-28T14:46:17.294Z,21.33
2023-02-28T14:50:01.273Z,17.90
2023-02-28T14:53:44.021Z,17.30
2023-02-28T14:57:28.261Z,18.93
2023-02-28T15:01:13.362Z,21.00
2023-02-28T15:05:00.715Z,22.63
2023-02-28T15:08:43.346Z,19.27
2023-02-28T15:12:27.236Z,16.70
2023-02-28T15:16:13.806Z,18.57
2023-02-28T15:19:57.019Z,17.80
2023-02-28T15:23:40.128Z,16.57
2023-02-28T15:27:24.560Z,16.00
2023-02-28T15:31:23.833Z,17.37
2023-02-28T15:35:21.803Z,21.60
2023-02-28T15:39:15.915Z,19.00
2023-02-28T15:43:07.073Z,19.63
2023-02-28T15:47:00.150Z,16.30
2023-02-28T15:50:43.354Z,17.07
2023-02-28T15:54:30.163Z,19.97
2023-02-28T15:58:14.457Z,17.00
2023-02-28T16:02:23.063Z,18.17
2023-02-28T16:06:40.184Z,19.03
2023-02-28T16:10:27.848Z,18.47
2023-02-28T16:14:15.745Z,18.80
2023-02-28T16:17:59.922Z,18.53
2023-02-28T16:21:42.534Z,17.00
2023-02-28T16:25:28.490Z,18.97
2023-02-28T16:29:14.227Z,18.53
2023-02-28T16:32:59.045Z,18.67
2023-02-28T16:36:42.057Z,20.47
2023-02-28T16:40:29.525Z,18.13
2023-02-28T16:44:15.558Z,18.17
2023-02-28T16:47:59.589Z,17.47
2023-02-28T16:51:42.194Z,18.70
2023-02-28T16:55:25.800Z,19.13
2023-02-28T16:59:10.416Z,19.33
2023-02-28T17:02:53.233Z,21.70
2023-02-28T17:06:37.560Z,20.83
2023-02-28T17:10:21.937Z,20.50
2023-02-28T17:14:05.218Z,24.10
2023-02-28T17:17:48.582Z,35.23
2023-02-28T17:21:31.980Z,102.10
2023-02-28T17:25:16.155Z,27.10
2023-02-28T17:28:59.608Z,27.37
2023-02-28T17:32:42.389Z,22.93
2023-02-28T17:36:28.129Z,25.53
2023-02-28T17:40:17.359Z,20.77
2023-02-28T17:44:00.120Z,24.73
2023-02-28T17:47:44.133Z,25.43
2023-02-28T17:51:29.067Z,28.33
2023-02-28T17:55:12.681Z,26.27
2023-02-28T17:58:57.520Z,25.47
2023-02-28T18:02:40.199Z,26.53
2023-02-28T18:06:24.835Z,27.07
2023-02-28T18:10:08.719Z,29.50
2023-02-28T18:13:53.212Z,32.90
2023-02-28T18:17:37.571Z,27.27
2023-02-28T18:21:20.244Z,29.60
2023-02-28T18:25:03.043Z,28.60
2023-02-28T18:28:46.301Z,26.67
2023-02-28T18:32:28.997Z,28.00
2023-02-28T18:36:13.108Z,30.00
2023-02-28T18:39:55.772Z,27.77
2023-02-28T18:43:39.396Z,29.47
2023-02-28T18:47:22.217Z,30.77
2023-02-28T18:51:09.033Z,28.87
2023-02-28T18:54:53.039Z,29.77
2023-02-28T18:58:36.255Z,25.63
2023-02-28T19:02:19.423Z,25.90
2023-02-28T19:06:02.163Z,30.77
2023-02-28T19:09:44.840Z,26.37
2023-02-28T19:13:28.996Z,26.60
2023-02-28T19:17:11.654Z,22.97
2023-02-28T19:20:54.915Z,25.90
2023-02-28T19:24:37.523Z,27.10
2023-02-28T19:28:20.401Z,25.00
2023-02-28T19:32:04.926Z,23.97
2023-02-28T19:35:48.398Z,24.93
2023-02-28T19:39:41.011Z,26.80
2023-02-28T19:43:24.374Z,26.00
2023-02-28T19:47:08.908Z,26.10
2023-02-28T19:50:51.548Z,26.23
2023-02-28T19:54:34.819Z,25.40
2023-02-28T19:58:17.518Z,30.67
2023-02-28T20:02:00.249Z,27.93
2023-02-28T20:05:44.236Z,23.77
2023-02-28T20:09:30.814Z,29.57
2023-02-28T20:13:14.337Z,24.77
2023-02-28T20:16:58.270Z,29.60
2023-02-28T20:21:06.411Z,27.37
2023-02-28T20:24:49.563Z,27.10
2023-02-28T20:28:32.223Z,27.43
2023-02-28T20:32:14.905Z,30.57
2023-02-28T20:36:00.849Z,28.00
2023-02-28T20:39:44.899Z,28.00
2023-02-28T20:43:30.349Z,30.27
2023-02-28T20:47:12.993Z,29.40
2023-02-28T20:50:57.084Z,27.13
2023-02-28T20:54:39.737Z,27.43
2023-02-28T20:58:24.215Z,27.57
2023-02-28T21:02:06.958Z,27.00
2023-02-28T21:05:49.684Z,27.73
2023-02-28T21:09:32.750Z,27.13
2023-02-28T21:13:15.500Z,27.37
2023-02-28T21:16:59.725Z,28.50
2023-02-28T21:20:42.616Z,29.33
2023-02-28T21:24:25.586Z,27.97
2023-02-28T21:28:08.600Z,26.20
2023-02-28T21:31:52.438Z,26.73
2023-02-28T21:35:39.736Z,28.47
2023-02-28T21:39:28.456Z,27.07
2023-02-28T21:43:11.244Z,25.57
2023-02-28T21:46:56.945Z,36.07
2023-02-28T21:50:41.035Z,30.00
2023-02-28T21:54:23.982Z,24.50
2023-02-28T21:58:06.681Z,29.27
2023-02-28T22:01:51.524Z,27.57
2023-02-28T22:05:34.304Z,26.77
2023-02-28T22:09:18.820Z,24.47
2023-02-28T22:13:03.584Z,27.77
2023-02-28T22:16:55.160Z,27.90
2023-02-28T22:20:38.279Z,25.13
2023-02-28T22:24:24.382Z,27.67
2023-02-28T22:28:07.352Z,28.47
2023-02-28T22:31:50.065Z,27.00
2023-02-28T22:35:32.785Z,26.03
2023-02-28T22:39:15.512Z,28.90
2023-02-28T22:42:59.630Z,30.43
2023-02-28T22:46:42.360Z,25.60
2023-02-28T22:50:25.056Z,27.63
2023-02-28T22:54:07.710Z,30.40
2023-02-28T22:57:50.379Z,27.13
2023-02-28T23:01:35.631Z,29.00
2023-02-28T23:05:18.578Z,27.60
2023-02-28T23:09:02.948Z,26.20
2023-02-28T23:12:51.209Z,29.73
2023-02-28T23:16:37.210Z,29.53
2023-02-28T23:20:21.816Z,30.03
2023-02-28T23:24:05.394Z,27.10
2023-02-28T23:27:48.351Z,32.23
2023-02-28T23:31:31.399Z,28.33
2023-02-28T23:35:15.484Z,27.00
2023-02-28T23:38:58.147Z,29.13
2023-02-28T23:42:41.007Z,29.93
2023-02-28T23:46:23.819Z,26.93
2023-02-28T23:50:07.105Z,33.67
2023-02-28T23:53:52.592Z,28.80
2023-02-28T23:57:36.170Z,31.13
